sensor_id;sensor_type;location;lat;lon;timestamp;pressure;altitude;pressure_sealevel;temperature;humidity
54546;BME280;40444;45.184;9.850;2023-02-28T00:01:28;101506.38;;;4.62;96.80
54546;BME280;40444;45.184;9.850;2023-02-28T00:03:57;101504.47;;;4.64;96.51
54546;BME280;40444;45.184;9.850;2023-02-28T00:06:26;101507.13;;;4.64;95.95
54546;BME280;40444;45.184;9.850;2023-02-28T00:08:54;101514.09;;;4.67;95.58
54546;BME280;40444;45.184;9.850;2023-02-28T00:11:22;101514.91;;;4.69;95.19
54546;BME280;40444;45.184;9.850;2023-02-28T00:13:51;101515.56;;;4.72;94.80
54546;BME280;40444;45.184;9.850;2023-02-28T00:16:21;101515.56;;;4.72;94.98
54546;BME280;40444;45.184;9.850;2023-02-28T00:18:50;101518.16;;;4.74;95.36
54546;BME280;40444;45.184;9.850;2023-02-28T00:21:20;101525.91;;;4.78;96.55
54546;BME280;40444;45.184;9.850;2023-02-28T00:23:48;101517.84;;;4.80;97.39
54546;BME280;40444;45.184;9.850;2023-02-28T00:26:16;101522.22;;;4.81;96.61
54546;BME280;40444;45.184;9.850;2023-02-28T00:28:49;101517.84;;;4.80;95.81
54546;BME280;40444;45.184;9.850;2023-02-28T00:31:20;101525.09;;;4.76;95.86
54546;BME280;40444;45.184;9.850;2023-02-28T00:33:48;101531.28;;;4.77;96.27
54546;BME280;40444;45.184;9.850;2023-02-28T00:36:18;101534.72;;;4.79;95.94
54546;BME280;40444;45.184;9.850;2023-02-28T00:38:47;101539.09;;;4.80;94.52
54546;BME280;40444;45.184;9.850;2023-02-28T00:41:15;101535.50;;;4.81;93.57
54546;BME280;40444;45.184;9.850;2023-02-28T00:43:43;101536.34;;;4.81;93.71
54546;BME280;40444;45.184;9.850;2023-02-28T00:55:15;101532.78;;;4.82;95.08
54546;BME280;40444;45.184;9.850;2023-02-28T00:57:44;101530.28;;;4.79;92.95
54546;BME280;40444;45.184;9.850;2023-02-28T01:00:13;101539.09;;;4.80;92.13
54546;BME280;40444;45.184;9.850;2023-02-28T01:02:43;101536.53;;;4.78;94.39
54546;BME280;40444;45.184;9.850;2023-02-28T01:05:11;101528.63;;;4.77;95.56
54546;BME280;40444;45.184;9.850;2023-02-28T01:07:39;101534.09;;;4.74;95.58
54546;BME280;40444;45.184;9.850;2023-02-28T01:10:08;101535.00;;;4.73;93.02
54546;BME280;40444;45.184;9.850;2023-02-28T01:12:37;101535.19;;;4.70;92.98
54546;BME280;40444;45.184;9.850;2023-02-28T01:15:06;101531.66;;;4.52;91.95
54546;BME280;40444;45.184;9.850;2023-02-28T01:17:35;101533.00;;;4.61;92.00
54546;BME280;40444;45.184;9.850;2023-02-28T01:20:04;101534.63;;;4.63;91.72
54546;BME280;40444;45.184;9.850;2023-02-28T01:22:34;101541.72;;;4.63;91.28
54546;BME280;40444;45.184;9.850;2023-02-28T01:25:03;101544.53;;;4.60;91.99
54546;BME280;40444;45.184;9.850;2023-02-28T01:27:31;101538.13;;;4.64;92.44
54546;BME280;40444;45.184;9.850;2023-02-28T01:29:59;101537.50;;;4.59;92.41
54546;BME280;40444;45.184;9.850;2023-02-28T01:32:28;101535.03;;;4.55;91.48
54546;BME280;40444;45.184;9.850;2023-02-28T01:34:56;101533.97;;;4.41;91.90
54546;BME280;40444;45.184;9.850;2023-02-28T01:37:24;101536.94;;;4.35;93.31
54546;BME280;40444;45.184;9.850;2023-02-28T01:39:52;101534.19;;;4.36;92.96
54546;BME280;40444;45.184;9.850;2023-02-28T01:42:21;101536.78;;;4.38;92.36
54546;BME280;40444;45.184;9.850;2023-02-28T01:45:00;101531.75;;;4.31;91.76
54546;BME280;40444;45.184;9.850;2023-02-28T01:47:33;101540.66;;;4.30;90.86
54546;BME280;40444;45.184;9.850;2023-02-28T01:50:06;101539.72;;;4.31;90.96
54546;BME280;40444;45.184;9.850;2023-02-28T01:52:35;101544.16;;;4.31;91.43
54546;BME280;40444;45.184;9.850;2023-02-28T01:55:06;101539.66;;;4.33;92.23
54546;BME280;40444;45.184;9.850;2023-02-28T01:57:45;101538.63;;;4.36;91.84
54546;BME280;40444;45.184;9.850;2023-02-28T02:00:17;101536.13;;;4.32;91.58
54546;BME280;40444;45.184;9.850;2023-02-28T02:02:49;101537.28;;;4.27;90.93
54546;BME280;40444;45.184;9.850;2023-02-28T02:05:23;101535.66;;;4.24;90.67
54546;BME280;40444;45.184;9.850;2023-02-28T02:07:55;101539.31;;;4.22;90.52
54546;BME280;40444;45.184;9.850;2023-02-28T02:10:46;101525.81;;;4.26;89.55
54546;BME280;40444;45.184;9.850;2023-02-28T02:25:08;101537.50;;;4.22;89.59
54546;BME280;40444;45.184;9.850;2023-02-28T02:36:35;101524.91;;;4.09;95.45
54546;BME280;40444;45.184;9.850;2023-02-28T02:39:14;101529.81;;;3.99;96.68
54546;BME280;40444;45.184;9.850;2023-02-28T02:41:54;101530.78;;;3.96;97.89
54546;BME280;40444;45.184;9.850;2023-02-28T02:47:11;101521.72;;;4.02;98.29
54546;BME280;40444;45.184;9.850;2023-02-28T02:49:49;101528.13;;;3.96;98.38
54546;BME280;40444;45.184;9.850;2023-02-28T02:52:23;101523.78;;;3.95;98.32
54546;BME280;40444;45.184;9.850;2023-02-28T02:54:54;101523.34;;;3.86;97.50
54546;BME280;40444;45.184;9.850;2023-02-28T02:57:40;101529.44;;;3.88;97.64
54546;BME280;40444;45.184;9.850;2023-02-28T03:00:15;101523.44;;;3.84;98.16
54546;BME280;40444;45.184;9.850;2023-02-28T03:02:47;101519.91;;;3.84;98.23
54546;BME280;40444;45.184;9.850;2023-02-28T03:05:23;101519.75;;;3.87;98.35
54546;BME280;40444;45.184;9.850;2023-02-28T03:07:53;101520.69;;;3.86;98.97
54546;BME280;40444;45.184;9.850;2023-02-28T03:16:16;101511.91;;;3.85;99.67
54546;BME280;40444;45.184;9.850;2023-02-28T03:27:08;101516.91;;;3.72;100.00
54546;BME280;40444;45.184;9.850;2023-02-28T03:29:42;101524.47;;;3.61;100.00
54546;BME280;40444;45.184;9.850;2023-02-28T03:32:48;101533.22;;;3.63;100.00
54546;BME280;40444;45.184;9.850;2023-02-28T03:35:22;101537.16;;;3.54;100.00
54546;BME280;40444;45.184;9.850;2023-02-28T03:37:54;101539.81;;;3.54;100.00
54546;BME280;40444;45.184;9.850;2023-02-28T03:40:28;101538.53;;;3.63;100.00
54546;BME280;40444;45.184;9.850;2023-02-28T03:43:03;101545.13;;;3.73;100.00
54546;BME280;40444;45.184;9.850;2023-02-28T03:45:37;101545.50;;;3.85;100.00
54546;BME280;40444;45.184;9.850;2023-02-28T03:48:15;101541.69;;;3.90;99.40
54546;BME280;40444;45.184;9.850;2023-02-28T03:50:49;101542.84;;;3.85;99.01
54546;BME280;40444;45.184;9.850;2023-02-28T03:53:28;101534.81;;;3.86;100.00
54546;BME280;40444;45.184;9.850;2023-02-28T03:59:02;101547.22;;;3.86;100.00
54546;BME280;40444;45.184;9.850;2023-02-28T04:04:01;101547.72;;;3.94;100.00
54546;BME280;40444;45.184;9.850;2023-02-28T04:06:32;101544.44;;;3.89;99.13
54546;BME280;40444;45.184;9.850;2023-02-28T04:09:01;101543.53;;;3.88;100.00
54546;BME280;40444;45.184;9.850;2023-02-28T04:11:36;101544.13;;;3.76;100.00
54546;BME280;40444;45.184;9.850;2023-02-28T04:14:06;101535.16;;;3.78;99.95
54546;BME280;40444;45.184;9.850;2023-02-28T04:16:38;101545.63;;;3.82;100.00
54546;BME280;40444;45.184;9.850;2023-02-28T04:19:08;101538.41;;;3.85;100.00
54546;BME280;40444;45.184;9.850;2023-02-28T04:21:42;101541.84;;;3.87;100.00
54546;BME280;40444;45.184;9.850;2023-02-28T04:24:12;101543.50;;;3.90;100.00
54546;BME280;40444;45.184;9.850;2023-02-28T04:26:44;101540.84;;;3.90;100.00
54546;BME280;40444;45.184;9.850;2023-02-28T04:29:18;101543.31;;;3.93;100.00
54546;BME280;40444;45.184;9.850;2023-02-28T04:31:46;101548.38;;;3.99;100.00
54546;BME280;40444;45.184;9.850;2023-02-28T04:34:15;101554.00;;;3.91;100.00
54546;BME280;40444;45.184;9.850;2023-02-28T04:36:44;101550.81;;;3.85;99.78
54546;BME280;40444;45.184;9.850;2023-02-28T04:39:13;101548.72;;;3.72;100.00
54546;BME280;40444;45.184;9.850;2023-02-28T04:41:42;101552.84;;;3.59;100.00
54546;BME280;40444;45.184;9.850;2023-02-28T04:44:10;101549.19;;;3.22;100.00
54546;BME280;40444;45.184;9.850;2023-02-28T04:46:39;101552.28;;;3.12;100.00
54546;BME280;40444;45.184;9.850;2023-02-28T04:49:08;101560.13;;;3.15;97.43
54546;BME280;40444;45.184;9.850;2023-02-28T04:51:39;101559.38;;;3.32;96.85
54546;BME280;40444;45.184;9.850;2023-02-28T04:54:07;101567.34;;;3.32;95.91
54546;BME280;40444;45.184;9.850;2023-02-28T04:56:35;101561.88;;;3.35;95.17
54546;BME280;40444;45.184;9.850;2023-02-28T04:59:04;101565.06;;;3.43;95.81
54546;BME280;40444;45.184;9.850;2023-02-28T05:01:33;101568.31;;;3.49;96.15
54546;BME280;40444;45.184;9.850;2023-02-28T05:04:04;101574.13;;;3.58;96.30
54546;BME280;40444;45.184;9.850;2023-02-28T05:06:33;101574.78;;;3.63;96.78
54546;BME280;40444;45.184;9.850;2023-02-28T05:09:01;101577.19;;;3.48;96.95
54546;BME280;40444;45.184;9.850;2023-02-28T05:11:32;101579.78;;;3.29;97.02
54546;BME280;40444;45.184;9.850;2023-02-28T05:14:06;101564.03;;;3.06;96.92
54546;BME280;40444;45.184;9.850;2023-02-28T05:16:35;101563.69;;;3.14;96.08
54546;BME280;40444;45.184;9.850;2023-02-28T05:19:03;101573.03;;;3.22;95.26
54546;BME280;40444;45.184;9.850;2023-02-28T05:21:32;101570.44;;;3.21;94.99
54546;BME280;40444;45.184;9.850;2023-02-28T05:24:04;101559.84;;;3.21;94.51
54546;BME280;40444;45.184;9.850;2023-02-28T05:26:38;101558.97;;;3.20;94.33
54546;BME280;40444;45.184;9.850;2023-02-28T05:29:07;101557.34;;;3.18;94.99
54546;BME280;40444;45.184;9.850;2023-02-28T05:31:37;101555.75;;;3.14;95.06
54546;BME280;40444;45.184;9.850;2023-02-28T05:34:05;101556.00;;;3.08;95.66
54546;BME280;40444;45.184;9.850;2023-02-28T19:35:33;101421.44;;;4.62;98.50
54546;BME280;40444;45.184;9.850;2023-02-28T19:38:02;101405.72;;;4.75;98.20
54546;BME280;40444;45.184;9.850;2023-02-28T19:40:30;101413.72;;;4.91;95.79
54546;BME280;40444;45.184;9.850;2023-02-28T19:42:58;101407.59;;;5.06;94.23
54546;BME280;40444;45.184;9.850;2023-02-28T19:45:32;101404.19;;;5.20;92.47
54546;BME280;40444;45.184;9.850;2023-02-28T19:48:00;101410.56;;;5.33;90.62
54546;BME280;40444;45.184;9.850;2023-02-28T19:50:29;101409.09;;;5.43;89.81
54546;BME280;40444;45.184;9.850;2023-02-28T19:52:57;101415.22;;;5.45;88.87
54546;BME280;40444;45.184;9.850;2023-02-28T19:55:27;101415.47;;;5.41;88.50
54546;BME280;40444;45.184;9.850;2023-02-28T19:57:55;101417.59;;;5.34;88.90
54546;BME280;40444;45.184;9.850;2023-02-28T20:00:24;101420.41;;;5.31;89.01
54546;BME280;40444;45.184;9.850;2023-02-28T20:02:52;101417.09;;;5.27;90.46
54546;BME280;40444;45.184;9.850;2023-02-28T20:05:20;101421.44;;;5.28;91.26
54546;BME280;40444;45.184;9.850;2023-02-28T20:07:48;101420.59;;;5.28;91.48
54546;BME280;40444;45.184;9.850;2023-02-28T20:10:17;101414.47;;;5.26;92.39
54546;BME280;40444;45.184;9.850;2023-02-28T20:12:46;101418.88;;;5.27;93.45
54546;BME280;40444;45.184;9.850;2023-02-28T20:15:14;101414.41;;;5.27;93.16
54546;BME280;40444;45.184;9.850;2023-02-28T20:17:43;101415.28;;;5.28;92.53
54546;BME280;40444;45.184;9.850;2023-02-28T20:20:13;101416.97;;;5.29;92.32
54546;BME280;40444;45.184;9.850;2023-02-28T20:22:41;101419.56;;;5.30;92.52
54546;BME280;40444;45.184;9.850;2023-02-28T20:25:10;101413.31;;;5.31;92.68
54546;BME280;40444;45.184;9.850;2023-02-28T20:27:38;101416.72;;;5.33;92.63
54546;BME280;40444;45.184;9.850;2023-02-28T20:30:07;101416.63;;;5.35;92.70
54546;BME280;40444;45.184;9.850;2023-02-28T20:32:35;101416.72;;;5.33;92.12
54546;BME280;40444;45.184;9.850;2023-02-28T20:35:07;101413.31;;;5.31;92.59
54546;BME280;40444;45.184;9.850;2023-02-28T20:37:38;101421.44;;;5.28;93.57
54546;BME280;40444;45.184;9.850;2023-02-28T20:40:09;101418.94;;;5.25;93.95
54546;BME280;40444;45.184;9.850;2023-02-28T20:42:38;101420.84;;;5.23;93.16
54546;BME280;40444;45.184;9.850;2023-02-28T20:45:07;101410.47;;;5.19;93.26
54546;BME280;40444;45.184;9.850;2023-02-28T20:47:35;101412.31;;;5.17;94.23
54546;BME280;40444;45.184;9.850;2023-02-28T20:50:04;101408.06;;;5.14;95.32
54546;BME280;40444;45.184;9.850;2023-02-28T20:52:32;101402.91;;;5.11;94.97
54546;BME280;40444;45.184;9.850;2023-02-28T20:55:01;101406.50;;;5.10;94.36
54546;BME280;40444;45.184;9.850;2023-02-28T20:57:29;101409.31;;;5.07;94.40
54546;BME280;40444;45.184;9.850;2023-02-28T20:59:58;101421.03;;;5.03;94.03
54546;BME280;40444;45.184;9.850;2023-02-28T21:02:26;101422.00;;;5.02;94.56
54546;BME280;40444;45.184;9.850;2023-02-28T21:04:55;101417.78;;;4.98;95.28
54546;BME280;40444;45.184;9.850;2023-02-28T21:07:23;101421.28;;;4.98;96.28
54546;BME280;40444;45.184;9.850;2023-02-28T21:09:53;101419.66;;;4.96;96.07
54546;BME280;40444;45.184;9.850;2023-02-28T21:12:22;101428.75;;;4.92;96.36
54546;BME280;40444;45.184;9.850;2023-02-28T21:14:50;101426.47;;;4.84;96.91
54546;BME280;40444;45.184;9.850;2023-02-28T21:17:23;101423.25;;;4.77;97.10
54546;BME280;40444;45.184;9.850;2023-02-28T21:19:51;101430.31;;;4.78;97.25
54546;BME280;40444;45.184;9.850;2023-02-28T21:22:20;101436.47;;;4.79;97.05
54546;BME280;40444;45.184;9.850;2023-02-28T21:24:48;101432.88;;;4.80;97.50
54546;BME280;40444;45.184;9.850;2023-02-28T21:27:16;101439.03;;;4.80;97.77
54546;BME280;40444;45.184;9.850;2023-02-28T21:29:45;101438.91;;;4.84;98.17
54546;BME280;40444;45.184;9.850;2023-02-28T21:32:13;101434.34;;;4.86;98.37
54546;BME280;40444;45.184;9.850;2023-02-28T21:34:49;101435.19;;;4.86;98.95
54546;BME280;40444;45.184;9.850;2023-02-28T21:37:18;101436.16;;;4.85;99.71
54546;BME280;40444;45.184;9.850;2023-02-28T21:39:47;101438.91;;;4.84;100.00
54546;BME280;40444;45.184;9.850;2023-02-28T21:42:16;101434.53;;;4.82;99.46
54546;BME280;40444;45.184;9.850;2023-02-28T21:44:44;101431.88;;;4.82;98.73
54546;BME280;40444;45.184;9.850;2023-02-28T21:47:13;101435.38;;;4.83;97.85
54546;BME280;40444;45.184;9.850;2023-02-28T21:49:41;101436.25;;;4.84;98.10
54546;BME280;40444;45.184;9.850;2023-02-28T21:52:09;101428.28;;;4.84;97.81
54546;BME280;40444;45.184;9.850;2023-02-28T21:54:37;101430.94;;;4.84;97.98
54546;BME280;40444;45.184;9.850;2023-02-28T21:57:06;101431.09;;;4.80;98.26
54546;BME280;40444;45.184;9.850;2023-02-28T21:59:35;101438.28;;;4.78;98.51
54546;BME280;40444;45.184;9.850;2023-02-28T22:02:03;101431.41;;;4.74;98.48
54546;BME280;40444;45.184;9.850;2023-02-28T22:04:32;101434.94;;;4.75;98.92
54546;BME280;40444;45.184;9.850;2023-02-28T22:07:00;101435.41;;;4.66;98.75
54546;BME280;40444;45.184;9.850;2023-02-28T22:09:29;101432.19;;;4.59;99.07
54546;BME280;40444;45.184;9.850;2023-02-28T22:11:57;101432.28;;;4.57;99.58
54546;BME280;40444;45.184;9.850;2023-02-28T22:14:26;101438.16;;;4.47;100.00
54546;BME280;40444;45.184;9.850;2023-02-28T22:16:55;101434.31;;;4.35;100.00
54546;BME280;40444;45.184;9.850;2023-02-28T22:19:24;101431.16;;;4.27;100.00
54546;BME280;40444;45.184;9.850;2023-02-28T22:21:55;101438.50;;;4.22;100.00
54546;BME280;40444;45.184;9.850;2023-02-28T22:24:24;101427.97;;;4.20;100.00
54546;BME280;40444;45.184;9.850;2023-02-28T22:26:52;101429.56;;;4.24;100.00
54546;BME280;40444;45.184;9.850;2023-02-28T22:29:21;101432.97;;;4.26;100.00
54546;BME280;40444;45.184;9.850;2023-02-28T22:31:49;101433.75;;;4.28;100.00
54546;BME280;40444;45.184;9.850;2023-02-28T22:34:18;101430.16;;;4.29;100.00
54546;BME280;40444;45.184;9.850;2023-02-28T22:36:46;101428.28;;;4.31;100.00
54546;BME280;40444;45.184;9.850;2023-02-28T22:39:15;101429.09;;;4.34;100.00
54546;BME280;40444;45.184;9.850;2023-02-28T22:41:43;101431.88;;;4.30;100.00
54546;BME280;40444;45.184;9.850;2023-02-28T22:44:11;101425.72;;;4.30;100.00
54546;BME280;40444;45.184;9.850;2023-02-28T22:46:39;101428.38;;;4.30;100.00
54546;BME280;40444;45.184;9.850;2023-02-28T22:49:07;101430.22;;;4.28;100.00
54546;BME280;40444;45.184;9.850;2023-02-28T22:51:35;101423.59;;;4.19;100.00
54546;BME280;40444;45.184;9.850;2023-02-28T22:54:04;101428.97;;;4.18;100.00
54546;BME280;40444;45.184;9.850;2023-02-28T22:56:32;101427.19;;;4.18;100.00
54546;BME280;40444;45.184;9.850;2023-02-28T22:59:01;101422.69;;;4.20;100.00
54546;BME280;40444;45.184;9.850;2023-02-28T23:01:33;101429.69;;;4.21;100.00
54546;BME280;40444;45.184;9.850;2023-02-28T23:04:02;101429.56;;;4.24;100.00
54546;BME280;40444;45.184;9.850;2023-02-28T23:06:36;101430.63;;;4.20;100.00
54546;BME280;40444;45.184;9.850;2023-02-28T23:09:14;101425.69;;;4.13;100.00
54546;BME280;40444;45.184;9.850;2023-02-28T23:11:46;101424.91;;;4.11;100.00
54546;BME280;40444;45.184;9.850;2023-02-28T23:14:17;101425.69;;;4.13;100.00
54546;BME280;40444;45.184;9.850;2023-02-28T23:16:51;101421.34;;;4.12;100.00
54546;BME280;40444;45.184;9.850;2023-02-28T23:19:26;101418.75;;;4.10;100.00
54546;BME280;40444;45.184;9.850;2023-02-28T23:21:57;101419.69;;;4.09;100.00
54546;BME280;40444;45.184;9.850;2023-02-28T23:24:28;101418.81;;;4.09;100.00
54546;BME280;40444;45.184;9.850;2023-02-28T23:26:59;101418.91;;;4.07;100.00
54546;BME280;40444;45.184;9.850;2023-02-28T23:29:27;101411.88;;;4.06;100.00
54546;BME280;40444;45.184;9.850;2023-02-28T23:31:56;101414.59;;;4.04;100.00
54546;BME280;40444;45.184;9.850;2023-02-28T23:34:25;101415.47;;;4.05;100.00
54546;BME280;40444;45.184;9.850;2023-02-28T23:36:57;101412.03;;;4.03;100.00
54546;BME280;40444;45.184;9.850;2023-02-28T23:39:27;101406.13;;;3.98;100.00
54546;BME280;40444;45.184;9.850;2023-02-28T23:41:56;101413.25;;;3.96;100.00
54546;BME280;40444;45.184;9.850;2023-02-28T23:44:25;101412.56;;;3.92;100.00
54546;BME280;40444;45.184;9.850;2023-02-28T23:46:53;101414.88;;;3.81;100.00
54546;BME280;40444;45.184;9.850;2023-02-28T23:49:22;101406.94;;;3.81;100.00
54546;BME280;40444;45.184;9.850;2023-02-28T23:51:51;101406.28;;;3.76;100.00
54546;BME280;40444;45.184;9.850;2023-02-28T23:54:21;101408.09;;;3.75;100.00
54546;BME280;40444;45.184;9.850;2023-02-28T23:56:49;101406.34;;;3.74;100.00
54546;BME280;40444;45.184;9.850;2023-02-28T23:59:18;101408.31;;;3.71;100.00
